sensor_id;sensor_type;location;lat;lon;timestamp;P1;durP1;ratioP1;P2;durP2;ratioP2
10554;SDS011;5326;51.522;7.388;2022-08-01T00:00:01;22.37;;;20.03;;
10554;SDS011;5326;51.522;7.388;2022-08-01T00:02:35;23.83;;;21.40;;
10554;SDS011;5326;51.522;7.388;2022-08-01T00:05:04;26.23;;;23.07;;
10554;SDS011;5326;51.522;7.388;2022-08-01T00:07:32;23.30;;;21.13;;
10554;SDS011;5326;51.522;7.388;2022-08-01T00:10:03;25.37;;;22.73;;
10554;SDS011;5326;51.522;7.388;2022-08-01T00:12:30;26.23;;;23.40;;
10554;SDS011;5326;51.522;7.388;2022-08-01T00:14:57;29.40;;;26.20;;
10554;SDS011;5326;51.522;7.388;2022-08-01T00:17:23;29.87;;;27.00;;
10554;SDS011;5326;51.522;7.388;2022-08-01T00:19:50;28.87;;;25.90;;
10554;SDS011;5326;51.522;7.388;2022-08-01T00:22:16;29.73;;;26.47;;
10554;SDS011;5326;51.522;7.388;2022-08-01T00:24:43;36.00;;;32.27;;
10554;SDS011;5326;51.522;7.388;2022-08-01T00:27:09;29.73;;;26.83;;
10554;SDS011;5326;51.522;7.388;2022-08-01T00:29:36;28.93;;;26.20;;
10554;SDS011;5326;51.522;7.388;2022-08-01T00:32:23;28.53;;;25.70;;
10554;SDS011;5326;51.522;7.388;2022-08-01T00:34:50;28.67;;;25.87;;
10554;SDS011;5326;51.522;7.388;2022-08-01T00:37:16;30.40;;;27.10;;
10554;SDS011;5326;51.522;7.388;2022-08-01T00:39:43;29.80;;;26.90;;
10554;SDS011;5326;51.522;7.388;2022-08-01T00:42:10;28.10;;;25.30;;
10554;SDS011;5326;51.522;7.388;2022-08-01T00:44:38;28.70;;;25.90;;
10554;SDS011;5326;51.522;7.388;2022-08-01T00:47:05;29.07;;;26.33;;
10554;SDS011;5326;51.522;7.388;2022-08-01T00:49:33;28.80;;;25.80;;
10554;SDS011;5326;51.522;7.388;2022-08-01T00:51:59;30.30;;;27.27;;
10554;SDS011;5326;51.522;7.388;2022-08-01T00:54:27;31.87;;;28.60;;
10554;SDS011;5326;51.522;7.388;2022-08-01T00:56:54;30.33;;;27.23;;
10554;SDS011;5326;51.522;7.388;2022-08-01T00:59:21;31.47;;;28.07;;
10554;SDS011;5326;51.522;7.388;2022-08-01T01:01:51;32.10;;;29.00;;
10554;SDS011;5326;51.522;7.388;2022-08-01T01:04:18;31.17;;;27.93;;
10554;SDS011;5326;51.522;7.388;2022-08-01T01:12:10;29.20;;;26.33;;
10554;SDS011;5326;51.522;7.388;2022-08-01T01:15:07;31.57;;;25.17;;
10554;SDS011;5326;51.522;7.388;2022-08-01T01:17:38;27.97;;;25.03;;
10554;SDS011;5326;51.522;7.388;2022-08-01T01:20:17;27.37;;;24.07;;
10554;SDS011;5326;51.522;7.388;2022-08-01T01:22:50;27.27;;;24.47;;
10554;SDS011;5326;51.522;7.388;2022-08-01T01:25:29;29.10;;;26.10;;
10554;SDS011;5326;51.522;7.388;2022-08-01T01:30:36;31.07;;;27.17;;
10554;SDS011;5326;51.522;7.388;2022-08-01T01:33:06;30.00;;;27.00;;
10554;SDS011;5326;51.522;7.388;2022-08-01T01:35:34;31.13;;;28.13;;
10554;SDS011;5326;51.522;7.388;2022-08-01T01:38:10;32.20;;;29.03;;
10554;SDS011;5326;51.522;7.388;2022-08-01T01:40:41;33.57;;;30.37;;
10554;SDS011;5326;51.522;7.388;2022-08-01T01:43:09;33.30;;;29.87;;
10554;SDS011;5326;51.522;7.388;2022-08-01T01:45:37;38.20;;;30.20;;
10554;SDS011;5326;51.522;7.388;2022-08-01T01:48:03;33.50;;;29.97;;
10554;SDS011;5326;51.522;7.388;2022-08-01T01:50:31;33.53;;;30.00;;
10554;SDS011;5326;51.522;7.388;2022-08-01T01:52:58;34.53;;;31.13;;
10554;SDS011;5326;51.522;7.388;2022-08-01T01:55:25;34.30;;;30.80;;
10554;SDS011;5326;51.522;7.388;2022-08-01T01:57:52;32.77;;;29.47;;
10554;SDS011;5326;51.522;7.388;2022-08-01T02:00:20;30.43;;;27.47;;
10554;SDS011;5326;51.522;7.388;2022-08-01T02:02:47;27.80;;;24.83;;
10554;SDS011;5326;51.522;7.388;2022-08-01T02:05:14;27.30;;;24.77;;
10554;SDS011;5326;51.522;7.388;2022-08-01T02:07:41;27.63;;;24.67;;
10554;SDS011;5326;51.522;7.388;2022-08-01T02:10:09;26.73;;;22.90;;
10554;SDS011;5326;51.522;7.388;2022-08-01T02:12:37;25.90;;;23.17;;
10554;SDS011;5326;51.522;7.388;2022-08-01T02:15:05;26.30;;;22.30;;
10554;SDS011;5326;51.522;7.388;2022-08-01T02:17:33;24.57;;;22.20;;
10554;SDS011;5326;51.522;7.388;2022-08-01T02:20:04;26.07;;;22.10;;
10554;SDS011;5326;51.522;7.388;2022-08-01T02:22:36;23.10;;;19.90;;
10554;SDS011;5326;51.522;7.388;2022-08-01T02:25:12;23.33;;;20.57;;
10554;SDS011;5326;51.522;7.388;2022-08-01T02:27:47;22.50;;;20.07;;
10554;SDS011;5326;51.522;7.388;2022-08-01T02:30:22;27.47;;;21.33;;
10554;SDS011;5326;51.522;7.388;2022-08-01T02:32:51;24.17;;;20.77;;
10554;SDS011;5326;51.522;7.388;2022-08-01T02:35:24;27.33;;;21.80;;
10554;SDS011;5326;51.522;7.388;2022-08-01T02:37:53;26.53;;;23.50;;
10554;SDS011;5326;51.522;7.388;2022-08-01T02:40:21;26.23;;;23.43;;
10554;SDS011;5326;51.522;7.388;2022-08-01T02:42:49;27.43;;;24.53;;
10554;SDS011;5326;51.522;7.388;2022-08-01T02:45:20;30.33;;;25.50;;
10554;SDS011;5326;51.522;7.388;2022-08-01T02:47:48;30.00;;;26.87;;
10554;SDS011;5326;51.522;7.388;2022-08-01T02:50:16;30.10;;;26.90;;
10554;SDS011;5326;51.522;7.388;2022-08-01T02:52:46;32.23;;;26.63;;
10554;SDS011;5326;51.522;7.388;2022-08-01T02:55:15;31.10;;;27.27;;
10554;SDS011;5326;51.522;7.388;2022-08-01T02:57:43;32.30;;;27.17;;
10554;SDS011;5326;51.522;7.388;2022-08-01T03:00:22;32.60;;;26.60;;
10554;SDS011;5326;51.522;7.388;2022-08-01T03:02:50;32.77;;;26.20;;
10554;SDS011;5326;51.522;7.388;2022-08-01T03:05:17;29.10;;;25.93;;
10554;SDS011;5326;51.522;7.388;2022-08-01T03:07:44;29.87;;;23.83;;
10554;SDS011;5326;51.522;7.388;2022-08-01T03:10:14;25.10;;;22.43;;
10554;SDS011;5326;51.522;7.388;2022-08-01T03:12:42;21.77;;;19.53;;
10554;SDS011;5326;51.522;7.388;2022-08-01T03:15:12;20.23;;;17.93;;
10554;SDS011;5326;51.522;7.388;2022-08-01T03:17:39;18.63;;;16.07;;
10554;SDS011;5326;51.522;7.388;2022-08-01T03:20:07;18.70;;;16.77;;
10554;SDS011;5326;51.522;7.388;2022-08-01T03:22:35;19.80;;;17.77;;
10554;SDS011;5326;51.522;7.388;2022-08-01T03:25:03;17.50;;;15.80;;
10554;SDS011;5326;51.522;7.388;2022-08-01T03:27:30;18.17;;;16.37;;
10554;SDS011;5326;51.522;7.388;2022-08-01T03:29:57;19.63;;;17.13;;
10554;SDS011;5326;51.522;7.388;2022-08-01T03:32:24;21.17;;;19.07;;
10554;SDS011;5326;51.522;7.388;2022-08-01T03:34:52;20.50;;;18.40;;
10554;SDS011;5326;51.522;7.388;2022-08-01T03:37:38;20.87;;;18.67;;
10554;SDS011;5326;51.522;7.388;2022-08-01T03:40:30;21.47;;;19.37;;
10554;SDS011;5326;51.522;7.388;2022-08-01T03:43:05;20.97;;;18.83;;
10554;SDS011;5326;51.522;7.388;2022-08-01T03:45:34;20.73;;;18.70;;
10554;SDS011;5326;51.522;7.388;2022-08-01T03:48:05;22.23;;;19.83;;
10554;SDS011;5326;51.522;7.388;2022-08-01T03:50:35;21.77;;;19.50;;
10554;SDS011;5326;51.522;7.388;2022-08-01T03:53:03;21.17;;;18.87;;
10554;SDS011;5326;51.522;7.388;2022-08-01T03:55:30;22.17;;;18.90;;
10554;SDS011;5326;51.522;7.388;2022-08-01T03:57:57;20.97;;;18.83;;
10554;SDS011;5326;51.522;7.388;2022-08-01T04:00:25;23.23;;;18.50;;
10554;SDS011;5326;51.522;7.388;2022-08-01T04:02:52;20.87;;;16.60;;
10554;SDS011;5326;51.522;7.388;2022-08-01T04:05:19;19.73;;;16.83;;
10554;SDS011;5326;51.522;7.388;2022-08-01T04:07:47;21.70;;;15.87;;
10554;SDS011;5326;51.522;7.388;2022-08-01T04:10:16;18.93;;;16.10;;
10554;SDS011;5326;51.522;7.388;2022-08-01T04:12:43;17.43;;;15.27;;
10554;SDS011;5326;51.522;7.388;2022-08-01T04:15:09;19.37;;;16.23;;
10554;SDS011;5326;51.522;7.388;2022-08-01T04:17:36;16.53;;;14.67;;
10554;SDS011;5326;51.522;7.388;2022-08-01T04:20:03;16.40;;;14.37;;
10554;SDS011;5326;51.522;7.388;2022-08-01T04:22:29;21.53;;;15.23;;
10554;SDS011;5326;51.522;7.388;2022-08-01T04:25:04;17.40;;;13.47;;
10554;SDS011;5326;51.522;7.388;2022-08-01T04:27:36;16.07;;;14.23;;
10554;SDS011;5326;51.522;7.388;2022-08-01T04:30:17;18.40;;;14.03;;
10554;SDS011;5326;51.522;7.388;2022-08-01T04:32:46;17.07;;;13.57;;
10554;SDS011;5326;51.522;7.388;2022-08-01T04:35:13;17.80;;;13.77;;
10554;SDS011;5326;51.522;7.388;2022-08-01T04:38:05;15.83;;;13.67;;
10554;SDS011;5326;51.522;7.388;2022-08-01T04:40:31;18.63;;;14.07;;
10554;SDS011;5326;51.522;7.388;2022-08-01T04:42:58;16.83;;;13.60;;
10554;SDS011;5326;51.522;7.388;2022-08-01T04:45:25;20.20;;;14.47;;
10554;SDS011;5326;51.522;7.388;2022-08-01T04:47:52;19.73;;;13.77;;
10554;SDS011;5326;51.522;7.388;2022-08-01T04:50:19;16.77;;;12.30;;
10554;SDS011;5326;51.522;7.388;2022-08-01T04:52:47;15.33;;;11.87;;
10554;SDS011;5326;51.522;7.388;2022-08-01T04:55:14;14.73;;;12.07;;
10554;SDS011;5326;51.522;7.388;2022-08-01T04:57:43;14.20;;;11.23;;
10554;SDS011;5326;51.522;7.388;2022-08-01T05:00:11;15.43;;;12.40;;
10554;SDS011;5326;51.522;7.388;2022-08-01T05:02:38;17.67;;;12.20;;
10554;SDS011;5326;51.522;7.388;2022-08-01T05:05:05;16.90;;;12.50;;
10554;SDS011;5326;51.522;7.388;2022-08-01T05:07:38;19.67;;;13.27;;
10554;SDS011;5326;51.522;7.388;2022-08-01T05:10:10;14.50;;;12.37;;
10554;SDS011;5326;51.522;7.388;2022-08-01T05:12:37;18.97;;;12.43;;
10554;SDS011;5326;51.522;7.388;2022-08-01T05:15:03;15.17;;;11.90;;
10554;SDS011;5326;51.522;7.388;2022-08-01T05:17:30;14.27;;;12.60;;
10554;SDS011;5326;51.522;7.388;2022-08-01T05:19:57;15.50;;;11.63;;
10554;SDS011;5326;51.522;7.388;2022-08-01T05:22:24;14.10;;;12.00;;
10554;SDS011;5326;51.522;7.388;2022-08-01T05:24:52;14.27;;;12.37;;
10554;SDS011;5326;51.522;7.388;2022-08-01T05:27:19;12.70;;;11.37;;
10554;SDS011;5326;51.522;7.388;2022-08-01T05:29:46;15.17;;;12.10;;
10554;SDS011;5326;51.522;7.388;2022-08-01T05:32:13;20.37;;;13.23;;
10554;SDS011;5326;51.522;7.388;2022-08-01T05:34:39;14.50;;;12.00;;
10554;SDS011;5326;51.522;7.388;2022-08-01T05:37:06;17.43;;;14.10;;
10554;SDS011;5326;51.522;7.388;2022-08-01T05:39:33;19.47;;;14.73;;
10554;SDS011;5326;51.522;7.388;2022-08-01T05:42:00;20.43;;;14.77;;
10554;SDS011;5326;51.522;7.388;2022-08-01T05:44:26;17.47;;;14.10;;
10554;SDS011;5326;51.522;7.388;2022-08-01T05:46:53;18.47;;;14.20;;
10554;SDS011;5326;51.522;7.388;2022-08-01T05:49:20;17.93;;;14.23;;
10554;SDS011;5326;51.522;7.388;2022-08-01T05:51:46;19.33;;;14.73;;
10554;SDS011;5326;51.522;7.388;2022-08-01T05:54:13;15.07;;;13.07;;
10554;SDS011;5326;51.522;7.388;2022-08-01T05:56:40;23.67;;;14.97;;
10554;SDS011;5326;51.522;7.388;2022-08-01T05:59:06;18.83;;;13.77;;
10554;SDS011;5326;51.522;7.388;2022-08-01T06:01:33;15.17;;;12.83;;
10554;SDS011;5326;51.522;7.388;2022-08-01T06:03:59;17.17;;;13.67;;
10554;SDS011;5326;51.522;7.388;2022-08-01T06:06:26;15.60;;;13.40;;
10554;SDS011;5326;51.522;7.388;2022-08-01T06:08:53;14.10;;;11.83;;
10554;SDS011;5326;51.522;7.388;2022-08-01T06:11:19;15.13;;;13.17;;
10554;SDS011;5326;51.522;7.388;2022-08-01T06:13:46;13.97;;;12.17;;
10554;SDS011;5326;51.522;7.388;2022-08-01T06:16:14;13.03;;;11.63;;
10554;SDS011;5326;51.522;7.388;2022-08-01T06:18:41;13.57;;;11.50;;
10554;SDS011;5326;51.522;7.388;2022-08-01T06:21:08;16.20;;;12.50;;
10554;SDS011;5326;51.522;7.388;2022-08-01T06:23:34;16.50;;;12.67;;
10554;SDS011;5326;51.522;7.388;2022-08-01T06:26:01;14.40;;;11.73;;
10554;SDS011;5326;51.522;7.388;2022-08-01T06:28:28;15.87;;;11.23;;
10554;SDS011;5326;51.522;7.388;2022-08-01T06:30:55;12.00;;;10.80;;
10554;SDS011;5326;51.522;7.388;2022-08-01T06:33:21;14.43;;;10.97;;
10554;SDS011;5326;51.522;7.388;2022-08-01T06:35:48;12.10;;;10.33;;
10554;SDS011;5326;51.522;7.388;2022-08-01T06:38:15;13.10;;;10.93;;
10554;SDS011;5326;51.522;7.388;2022-08-01T06:40:41;10.53;;;9.43;;
10554;SDS011;5326;51.522;7.388;2022-08-01T06:43:08;10.83;;;9.67;;
10554;SDS011;5326;51.522;7.388;2022-08-01T06:45:36;11.57;;;9.57;;
10554;SDS011;5326;51.522;7.388;2022-08-01T06:48:03;9.97;;;8.60;;
10554;SDS011;5326;51.522;7.388;2022-08-01T06:50:30;15.23;;;9.20;;
10554;SDS011;5326;51.522;7.388;2022-08-01T06:52:56;12.80;;;9.13;;
10554;SDS011;5326;51.522;7.388;2022-08-01T06:55:23;10.60;;;8.37;;
10554;SDS011;5326;51.522;7.388;2022-08-01T06:57:50;13.33;;;9.23;;
10554;SDS011;5326;51.522;7.388;2022-08-01T07:00:19;11.87;;;9.60;;
10554;SDS011;5326;51.522;7.388;2022-08-01T07:02:50;10.90;;;9.37;;
10554;SDS011;5326;51.522;7.388;2022-08-01T07:05:20;12.37;;;9.53;;
10554;SDS011;5326;51.522;7.388;2022-08-01T07:07:48;12.93;;;10.77;;
10554;SDS011;5326;51.522;7.388;2022-08-01T07:10:14;10.80;;;9.70;;
10554;SDS011;5326;51.522;7.388;2022-08-01T07:12:41;10.23;;;9.13;;
10554;SDS011;5326;51.522;7.388;2022-08-01T07:15:09;11.57;;;8.87;;
10554;SDS011;5326;51.522;7.388;2022-08-01T07:17:39;10.30;;;9.17;;
10554;SDS011;5326;51.522;7.388;2022-08-01T07:20:07;14.60;;;9.83;;
10554;SDS011;5326;51.522;7.388;2022-08-01T07:22:36;12.00;;;10.23;;
10554;SDS011;5326;51.522;7.388;2022-08-01T07:25:04;14.63;;;11.83;;
10554;SDS011;5326;51.522;7.388;2022-08-01T07:27:31;15.57;;;12.40;;
10554;SDS011;5326;51.522;7.388;2022-08-01T07:29:58;16.70;;;12.77;;
10554;SDS011;5326;51.522;7.388;2022-08-01T07:32:24;13.37;;;11.70;;
10554;SDS011;5326;51.522;7.388;2022-08-01T07:34:51;18.03;;;13.97;;
10554;SDS011;5326;51.522;7.388;2022-08-01T07:37:17;18.90;;;14.67;;
10554;SDS011;5326;51.522;7.388;2022-08-01T07:40:04;14.87;;;13.10;;
10554;SDS011;5326;51.522;7.388;2022-08-01T07:42:31;15.80;;;14.20;;
10554;SDS011;5326;51.522;7.388;2022-08-01T07:44:58;15.03;;;13.57;;
10554;SDS011;5326;51.522;7.388;2022-08-01T07:47:25;19.47;;;15.57;;
10554;SDS011;5326;51.522;7.388;2022-08-01T07:49:52;16.30;;;14.60;;
10554;SDS011;5326;51.522;7.388;2022-08-01T07:52:24;12.67;;;11.10;;
10554;SDS011;5326;51.522;7.388;2022-08-01T07:54:51;13.87;;;12.47;;
10554;SDS011;5326;51.522;7.388;2022-08-01T07:57:18;13.23;;;11.83;;
10554;SDS011;5326;51.522;7.388;2022-08-01T07:59:44;13.13;;;11.33;;
10554;SDS011;5326;51.522;7.388;2022-08-01T08:02:11;13.70;;;11.90;;
10554;SDS011;5326;51.522;7.388;2022-08-01T08:04:37;9.97;;;8.30;;
10554;SDS011;5326;51.522;7.388;2022-08-01T08:07:04;8.63;;;6.40;;
10554;SDS011;5326;51.522;7.388;2022-08-01T08:09:31;8.27;;;7.07;;
10554;SDS011;5326;51.522;7.388;2022-08-01T08:12:03;7.10;;;6.23;;
10554;SDS011;5326;51.522;7.388;2022-08-01T08:14:31;6.50;;;5.70;;
10554;SDS011;5326;51.522;7.388;2022-08-01T08:16:58;7.07;;;6.00;;
10554;SDS011;5326;51.522;7.388;2022-08-01T08:19:27;7.13;;;5.60;;
10554;SDS011;5326;51.522;7.388;2022-08-01T08:22:04;6.13;;;5.53;;
10554;SDS011;5326;51.522;7.388;2022-08-01T08:24:33;7.20;;;5.40;;
10554;SDS011;5326;51.522;7.388;2022-08-01T08:27:01;8.07;;;5.40;;
10554;SDS011;5326;51.522;7.388;2022-08-01T08:29:29;6.53;;;5.17;;
10554;SDS011;5326;51.522;7.388;2022-08-01T08:31:58;10.73;;;9.00;;
10554;SDS011;5326;51.522;7.388;2022-08-01T08:34:25;5.47;;;4.97;;
10554;SDS011;5326;51.522;7.388;2022-08-01T08:36:52;4.20;;;3.67;;
10554;SDS011;5326;51.522;7.388;2022-08-01T08:39:20;4.20;;;3.80;;
10554;SDS011;5326;51.522;7.388;2022-08-01T08:41:47;4.13;;;3.67;;
10554;SDS011;5326;51.522;7.388;2022-08-01T08:44:15;6.40;;;3.80;;
10554;SDS011;5326;51.522;7.388;2022-08-01T08:46:44;4.77;;;3.80;;
10554;SDS011;5326;51.522;7.388;2022-08-01T08:49:13;6.33;;;3.70;;
10554;SDS011;5326;51.522;7.388;2022-08-01T08:51:42;3.60;;;3.30;;
10554;SDS011;5326;51.522;7.388;2022-08-01T08:54:10;3.60;;;3.20;;
10554;SDS011;5326;51.522;7.388;2022-08-01T08:56:37;8.60;;;4.60;;
10554;SDS011;5326;51.522;7.388;2022-08-01T08:59:04;6.37;;;4.90;;
10554;SDS011;5326;51.522;7.388;2022-08-01T09:01:32;3.97;;;3.57;;
10554;SDS011;5326;51.522;7.388;2022-08-01T09:03:59;3.47;;;3.17;;
10554;SDS011;5326;51.522;7.388;2022-08-01T09:06:26;3.30;;;3.00;;
10554;SDS011;5326;51.522;7.388;2022-08-01T09:08:52;3.40;;;3.10;;
10554;SDS011;5326;51.522;7.388;2022-08-01T09:11:20;2.90;;;2.57;;
10554;SDS011;5326;51.522;7.388;2022-08-01T09:16:42;3.90;;;2.33;;
10554;SDS011;5326;51.522;7.388;2022-08-01T09:19:15;2.90;;;2.70;;
10554;SDS011;5326;51.522;7.388;2022-08-01T09:22:07;3.20;;;2.20;;
10554;SDS011;5326;51.522;7.388;2022-08-01T09:24:35;1.93;;;1.73;;
10554;SDS011;5326;51.522;7.388;2022-08-01T09:27:23;2.20;;;2.03;;
10554;SDS011;5326;51.522;7.388;2022-08-01T09:29:52;2.63;;;2.37;;
10554;SDS011;5326;51.522;7.388;2022-08-01T09:32:28;2.27;;;2.00;;
10554;SDS011;5326;51.522;7.388;2022-08-01T09:43:19;1.73;;;1.40;;
10554;SDS011;5326;51.522;7.388;2022-08-01T09:45:47;4.63;;;4.20;;
10554;SDS011;5326;51.522;7.388;2022-08-01T09:48:19;1.77;;;1.50;;
10554;SDS011;5326;51.522;7.388;2022-08-01T09:50:48;1.83;;;1.73;;
10554;SDS011;5326;51.522;7.388;2022-08-01T09:53:17;2.77;;;1.73;;
10554;SDS011;5326;51.522;7.388;2022-08-01T09:56:07;2.43;;;1.80;;
10554;SDS011;5326;51.522;7.388;2022-08-01T09:58:48;1.77;;;1.67;;
10554;SDS011;5326;51.522;7.388;2022-08-01T10:01:24;1.83;;;1.70;;
10554;SDS011;5326;51.522;7.388;2022-08-01T10:04:11;2.73;;;1.90;;
10554;SDS011;5326;51.522;7.388;2022-08-01T10:06:41;2.63;;;1.37;;
10554;SDS011;5326;51.522;7.388;2022-08-01T10:09:11;2.33;;;1.77;;
10554;SDS011;5326;51.522;7.388;2022-08-01T10:11:40;2.27;;;1.30;;
10554;SDS011;5326;51.522;7.388;2022-08-01T10:14:10;2.10;;;1.80;;
10554;SDS011;5326;51.522;7.388;2022-08-01T10:16:43;1.40;;;1.30;;
10554;SDS011;5326;51.522;7.388;2022-08-01T10:19:19;2.00;;;1.60;;
10554;SDS011;5326;51.522;7.388;2022-08-01T10:21:48;1.63;;;1.40;;
10554;SDS011;5326;51.522;7.388;2022-08-01T10:24:23;1.53;;;1.30;;
10554;SDS011;5326;51.522;7.388;2022-08-01T10:26:52;1.60;;;1.50;;
10554;SDS011;5326;51.522;7.388;2022-08-01T10:29:23;1.80;;;1.43;;
10554;SDS011;5326;51.522;7.388;2022-08-01T10:32:10;1.70;;;1.60;;
10554;SDS011;5326;51.522;7.388;2022-08-01T10:34:36;1.60;;;1.50;;
10554;SDS011;5326;51.522;7.388;2022-08-01T10:37:10;1.67;;;1.57;;
10554;SDS011;5326;51.522;7.388;2022-08-01T10:39:39;1.50;;;1.40;;
10554;SDS011;5326;51.522;7.388;2022-08-01T10:42:05;1.30;;;1.17;;
10554;SDS011;5326;51.522;7.388;2022-08-01T10:44:36;4.00;;;3.60;;
10554;SDS011;5326;51.522;7.388;2022-08-01T10:47:08;2.17;;;1.97;;
10554;SDS011;5326;51.522;7.388;2022-08-01T10:49:41;2.07;;;1.10;;
10554;SDS011;5326;51.522;7.388;2022-08-01T10:52:15;1.30;;;1.20;;
10554;SDS011;5326;51.522;7.388;2022-08-01T10:54:45;1.23;;;1.20;;
10554;SDS011;5326;51.522;7.388;2022-08-01T10:57:18;1.33;;;1.23;;
10554;SDS011;5326;51.522;7.388;2022-08-01T10:59:51;1.40;;;1.30;;
10554;SDS011;5326;51.522;7.388;2022-08-01T11:02:30;1.30;;;1.20;;
10554;SDS011;5326;51.522;7.388;2022-08-01T11:05:10;1.33;;;1.17;;
10554;SDS011;5326;51.522;7.388;2022-08-01T11:07:43;1.57;;;1.40;;
10554;SDS011;5326;51.522;7.388;2022-08-01T11:13:09;2.80;;;2.33;;
10554;SDS011;5326;51.522;7.388;2022-08-01T11:15:38;2.77;;;2.53;;
10554;SDS011;5326;51.522;7.388;2022-08-01T11:18:39;1.30;;;1.30;;
10554;SDS011;5326;51.522;7.388;2022-08-01T11:21:03;1.00;;;1.00;;
10554;SDS011;5326;51.522;7.388;2022-08-01T11:23:50;1.80;;;1.20;;
10554;SDS011;5326;51.522;7.388;2022-08-01T11:26:22;1.30;;;1.20;;
10554;SDS011;5326;51.522;7.388;2022-08-01T11:29:11;1.37;;;0.70;;
10554;SDS011;5326;51.522;7.388;2022-08-01T11:31:45;2.53;;;0.80;;
10554;SDS011;5326;51.522;7.388;2022-08-01T11:34:13;0.80;;;0.80;;
10554;SDS011;5326;51.522;7.388;2022-08-01T11:36:40;1.33;;;1.10;;
10554;SDS011;5326;51.522;7.388;2022-08-01T11:39:24;1.00;;;0.90;;
10554;SDS011;5326;51.522;7.388;2022-08-01T11:41:51;0.50;;;0.50;;
10554;SDS011;5326;51.522;7.388;2022-08-01T11:44:19;0.97;;;0.90;;
10554;SDS011;5326;51.522;7.388;2022-08-01T11:52:05;3.80;;;3.40;;
10554;SDS011;5326;51.522;7.388;2022-08-01T11:54:41;1.03;;;0.90;;
10554;SDS011;5326;51.522;7.388;2022-08-01T11:57:23;1.70;;;0.80;;
10554;SDS011;5326;51.522;7.388;2022-08-01T12:00:02;0.97;;;0.80;;
10554;SDS011;5326;51.522;7.388;2022-08-01T12:02:34;0.87;;;0.60;;
10554;SDS011;5326;51.522;7.388;2022-08-01T12:05:10;1.20;;;0.70;;
10554;SDS011;5326;51.522;7.388;2022-08-01T12:07:40;0.70;;;0.70;;
10554;SDS011;5326;51.522;7.388;2022-08-01T12:10:15;2.30;;;1.10;;
10554;SDS011;5326;51.522;7.388;2022-08-01T12:12:44;0.70;;;0.70;;
10554;SDS011;5326;51.522;7.388;2022-08-01T12:15:12;0.70;;;0.63;;
10554;SDS011;5326;51.522;7.388;2022-08-01T12:17:45;0.77;;;0.77;;
10554;SDS011;5326;51.522;7.388;2022-08-01T12:20:32;0.73;;;0.73;;
10554;SDS011;5326;51.522;7.388;2022-08-01T12:23:00;2.37;;;0.63;;
10554;SDS011;5326;51.522;7.388;2022-08-01T12:25:29;0.90;;;0.90;;
10554;SDS011;5326;51.522;7.388;2022-08-01T12:27:58;0.73;;;0.73;;
10554;SDS011;5326;51.522;7.388;2022-08-01T12:30:30;0.70;;;0.70;;
10554;SDS011;5326;51.522;7.388;2022-08-01T12:32:57;2.00;;;1.43;;
10554;SDS011;5326;51.522;7.388;2022-08-01T12:35:25;1.60;;;1.50;;
10554;SDS011;5326;51.522;7.388;2022-08-01T12:37:53;1.33;;;0.90;;
10554;SDS011;5326;51.522;7.388;2022-08-01T12:40:25;0.80;;;0.80;;
10554;SDS011;5326;51.522;7.388;2022-08-01T12:42:54;1.10;;;0.80;;
10554;SDS011;5326;51.522;7.388;2022-08-01T12:45:26;2.10;;;0.87;;
10554;SDS011;5326;51.522;7.388;2022-08-01T12:47:54;1.10;;;1.00;;
10554;SDS011;5326;51.522;7.388;2022-08-01T12:50:22;0.80;;;0.80;;
10554;SDS011;5326;51.522;7.388;2022-08-01T12:52:49;1.23;;;0.90;;
10554;SDS011;5326;51.522;7.388;2022-08-01T12:55:17;1.80;;;0.80;;
10554;SDS011;5326;51.522;7.388;2022-08-01T12:57:45;0.80;;;0.80;;
10554;SDS011;5326;51.522;7.388;2022-08-01T13:00:18;1.07;;;0.93;;
10554;SDS011;5326;51.522;7.388;2022-08-01T13:02:46;2.10;;;0.90;;
10554;SDS011;5326;51.522;7.388;2022-08-01T13:05:14;1.80;;;0.80;;
10554;SDS011;5326;51.522;7.388;2022-08-01T13:07:42;0.90;;;0.90;;
10554;SDS011;5326;51.522;7.388;2022-08-01T13:10:15;0.97;;;0.83;;
10554;SDS011;5326;51.522;7.388;2022-08-01T13:12:52;0.70;;;0.70;;
10554;SDS011;5326;51.522;7.388;2022-08-01T13:15:33;3.80;;;1.20;;
10554;SDS011;5326;51.522;7.388;2022-08-01T13:23:38;0.80;;;0.80;;
10554;SDS011;5326;51.522;7.388;2022-08-01T13:26:38;0.97;;;0.97;;
10554;SDS011;5326;51.522;7.388;2022-08-01T13:29:12;1.10;;;1.00;;
10554;SDS011;5326;51.522;7.388;2022-08-01T13:31:40;1.00;;;1.00;;
10554;SDS011;5326;51.522;7.388;2022-08-01T13:34:07;0.87;;;0.87;;
10554;SDS011;5326;51.522;7.388;2022-08-01T13:36:35;1.10;;;1.00;;
10554;SDS011;5326;51.522;7.388;2022-08-01T13:39:02;1.20;;;1.00;;
10554;SDS011;5326;51.522;7.388;2022-08-01T13:41:48;1.87;;;1.10;;
10554;SDS011;5326;51.522;7.388;2022-08-01T13:44:14;1.60;;;1.20;;
10554;SDS011;5326;51.522;7.388;2022-08-01T13:46:41;2.37;;;1.07;;
10554;SDS011;5326;51.522;7.388;2022-08-01T13:49:16;1.20;;;1.10;;
10554;SDS011;5326;51.522;7.388;2022-08-01T13:51:44;1.20;;;1.10;;
10554;SDS011;5326;51.522;7.388;2022-08-01T13:54:12;1.07;;;1.00;;
10554;SDS011;5326;51.522;7.388;2022-08-01T13:56:38;1.00;;;0.90;;
10554;SDS011;5326;51.522;7.388;2022-08-01T13:59:05;0.90;;;0.90;;
10554;SDS011;5326;51.522;7.388;2022-08-01T14:01:32;1.00;;;0.90;;
10554;SDS011;5326;51.522;7.388;2022-08-01T14:04:00;1.47;;;1.10;;
10554;SDS011;5326;51.522;7.388;2022-08-01T14:06:28;2.00;;;1.20;;
10554;SDS011;5326;51.522;7.388;2022-08-01T14:08:54;2.50;;;1.07;;
10554;SDS011;5326;51.522;7.388;2022-08-01T14:11:21;3.20;;;2.90;;
10554;SDS011;5326;51.522;7.388;2022-08-01T14:13:48;1.80;;;1.40;;
10554;SDS011;5326;51.522;7.388;2022-08-01T14:16:14;2.43;;;1.13;;
10554;SDS011;5326;51.522;7.388;2022-08-01T14:18:42;1.30;;;1.20;;
10554;SDS011;5326;51.522;7.388;2022-08-01T14:21:09;1.90;;;1.20;;
10554;SDS011;5326;51.522;7.388;2022-08-01T14:23:36;3.60;;;1.43;;
10554;SDS011;5326;51.522;7.388;2022-08-01T14:26:03;1.47;;;1.37;;
10554;SDS011;5326;51.522;7.388;2022-08-01T14:28:37;2.03;;;1.27;;
10554;SDS011;5326;51.522;7.388;2022-08-01T14:31:04;1.60;;;1.20;;
10554;SDS011;5326;51.522;7.388;2022-08-01T14:33:32;1.03;;;0.93;;
10554;SDS011;5326;51.522;7.388;2022-08-01T14:35:59;1.83;;;1.30;;
10554;SDS011;5326;51.522;7.388;2022-08-01T14:38:46;2.13;;;1.20;;
10554;SDS011;5326;51.522;7.388;2022-08-01T14:41:13;2.50;;;2.00;;
10554;SDS011;5326;51.522;7.388;2022-08-01T14:43:40;2.60;;;1.40;;
10554;SDS011;5326;51.522;7.388;2022-08-01T14:46:07;6.57;;;1.43;;
10554;SDS011;5326;51.522;7.388;2022-08-01T14:48:36;1.20;;;1.10;;
10554;SDS011;5326;51.522;7.388;2022-08-01T14:51:02;3.17;;;1.10;;
10554;SDS011;5326;51.522;7.388;2022-08-01T14:53:30;3.33;;;1.47;;
10554;SDS011;5326;51.522;7.388;2022-08-01T14:56:01;2.63;;;1.13;;
10554;SDS011;5326;51.522;7.388;2022-08-01T14:58:29;2.10;;;1.10;;
10554;SDS011;5326;51.522;7.388;2022-08-01T15:00:55;1.50;;;1.10;;
10554;SDS011;5326;51.522;7.388;2022-08-01T15:03:24;2.50;;;1.20;;
10554;SDS011;5326;51.522;7.388;2022-08-01T15:05:51;1.23;;;1.13;;
10554;SDS011;5326;51.522;7.388;2022-08-01T15:08:18;5.17;;;1.57;;
10554;SDS011;5326;51.522;7.388;2022-08-01T15:10:44;3.30;;;1.13;;
10554;SDS011;5326;51.522;7.388;2022-08-01T15:13:11;3.87;;;3.03;;
10554;SDS011;5326;51.522;7.388;2022-08-01T15:15:38;2.90;;;1.60;;
10554;SDS011;5326;51.522;7.388;2022-08-01T15:18:04;2.70;;;1.40;;
10554;SDS011;5326;51.522;7.388;2022-08-01T15:20:31;2.50;;;1.67;;
10554;SDS011;5326;51.522;7.388;2022-08-01T15:22:58;1.93;;;1.03;;
10554;SDS011;5326;51.522;7.388;2022-08-01T15:25:25;2.00;;;1.40;;
10554;SDS011;5326;51.522;7.388;2022-08-01T15:28:08;2.90;;;1.87;;
10554;SDS011;5326;51.522;7.388;2022-08-01T15:30:35;3.30;;;2.40;;
10554;SDS011;5326;51.522;7.388;2022-08-01T15:33:02;3.23;;;1.90;;
10554;SDS011;5326;51.522;7.388;2022-08-01T15:35:29;3.90;;;1.53;;